createdAt,value
2017-03-21T00:00:36.720Z,37.16
2017-03-21T00:01:46.350Z,36.68
2017-03-21T00:02:56.607Z,36.58
2017-03-21T00:04:06.555Z,36.68
2017-03-21T00:05:16.189Z,36.77
2017-03-21T00:06:26.444Z,36.97
2017-03-21T00:07:36.079Z,36.87
2017-03-21T00:08:45.736Z,36.58
2017-03-21T00:09:56.049Z,36.77
2017-03-21T00:11:06.308Z,36.68
2017-03-21T00:12:16.253Z,36.87
2017-03-21T00:13:26.197Z,36.49
2017-03-21T00:14:35.837Z,37.16
2017-03-21T00:15:46.099Z,36.19
2017-03-21T00:16:56.358Z,36.49
2017-03-21T00:18:06.307Z,37.06
2017-03-21T00:19:16.254Z,36.58
2017-03-21T00:20:26.193Z,36.77
2017-03-21T00:21:36.185Z,36.68
2017-03-21T00:22:46.128Z,36.77
2017-03-21T00:23:56.391Z,36.68
2017-03-21T00:25:06.657Z,36.58
2017-03-21T00:26:16.593Z,37.16
2017-03-21T00:27:25.905Z,36.58
2017-03-21T00:28:35.539Z,37.06
2017-03-21T00:29:45.801Z,37.06
2017-03-21T00:30:56.073Z,37.06
2017-03-21T00:32:05.394Z,36.58
2017-03-21T00:33:15.341Z,36.58
2017-03-21T00:34:24.984Z,36.49
2017-03-21T00:35:34.931Z,36.39
2017-03-21T00:36:45.190Z,36.39
2017-03-21T00:37:55.452Z,36.49
2017-03-21T00:39:05.398Z,36.49
2017-03-21T00:40:15.662Z,36.29
2017-03-21T00:41:25.605Z,36.1
2017-03-21T00:42:35.233Z,36.19
2017-03-21T00:43:45.178Z,36.19
2017-03-21T00:44:55.443Z,36.29
2017-03-21T00:46:05.073Z,36.29
2017-03-21T00:47:15.328Z,36.39
2017-03-21T00:48:25.593Z,36.29
2017-03-21T00:49:35.225Z,36.39
2017-03-21T00:50:45.483Z,36.58
2017-03-21T00:51:55.739Z,36.29
2017-03-21T00:53:05.687Z,36.1
2017-03-21T00:54:15.955Z,36.29
2017-03-21T00:55:25.589Z,36.39
2017-03-21T00:56:35.534Z,36.19
2017-03-21T00:57:45.793Z,36.19
2017-03-21T00:58:55.745Z,36.29
2017-03-21T01:00:05.701Z,36.29
2017-03-21T01:01:15.964Z,36.19
2017-03-21T01:02:25.588Z,36.39
2017-03-21T01:03:35.845Z,36.29
2017-03-21T01:04:45.793Z,36.19
2017-03-21T01:05:55.424Z,36.1
2017-03-21T01:07:05.361Z,36.1
2017-03-21T01:08:15.615Z,36.1
2017-03-21T01:09:25.557Z,36.19
2017-03-21T01:10:35.511Z,36.1
2017-03-21T01:11:45.461Z,36
2017-03-21T01:12:55.714Z,36.19
2017-03-21T01:14:05.068Z,36.1
2017-03-21T01:15:15.018Z,36.39
2017-03-21T01:16:24.954Z,36.19
2017-03-21T01:17:34.897Z,36.39
2017-03-21T01:18:45.166Z,36.1
2017-03-21T01:19:55.426Z,36.49
2017-03-21T01:21:05.684Z,36
2017-03-21T01:22:15.661Z,36.39
2017-03-21T01:23:25.614Z,36.19
2017-03-21T01:24:35.258Z,36.29
2017-03-21T01:25:45.516Z,36.39
2017-03-21T01:26:55.456Z,36.29
2017-03-21T01:28:05.758Z,36.39
2017-03-21T01:29:16.022Z,36.29
2017-03-21T01:30:26.283Z,36.19
2017-03-21T01:31:36.543Z,36.19
2017-03-21T01:32:46.828Z,36.39
2017-03-21T01:33:57.095Z,36.39
2017-03-21T01:35:07.036Z,36.29
2017-03-21T01:36:16.975Z,36.29
2017-03-21T01:37:26.914Z,36.19
2017-03-21T01:38:36.853Z,36.1
2017-03-21T01:39:47.110Z,36
2017-03-21T01:40:57.373Z,36.1
2017-03-21T01:42:07.314Z,36.1
2017-03-21T01:43:17.263Z,35.71
2017-03-21T01:44:27.533Z,35.81
2017-03-21T01:45:37.159Z,36
2017-03-21T01:46:47.420Z,35.81
2017-03-21T01:47:57.678Z,35.71
2017-03-21T01:49:07.947Z,36
2017-03-21T01:50:17.891Z,35.91
2017-03-21T01:51:28.149Z,35.81
2017-03-21T01:52:38.416Z,36
2017-03-21T01:53:48.371Z,36
2017-03-21T01:54:58.392Z,35.81
2017-03-21T01:56:08.023Z,35.71
2017-03-21T01:57:18.274Z,35.91
2017-03-21T01:58:28.216Z,35.91
2017-03-21T01:59:38.168Z,36.1
2017-03-21T02:00:48.428Z,35.81
2017-03-21T02:01:58.682Z,35.62
2017-03-21T02:03:08.625Z,35.91
2017-03-21T02:04:18.575Z,35.91
2017-03-21T02:05:28.520Z,35.62
2017-03-21T02:06:38.163Z,35.91
2017-03-21T02:07:48.422Z,35.62
2017-03-21T02:08:57.738Z,35.71
2017-03-21T02:10:07.376Z,35.81
2017-03-21T02:11:17.638Z,35.62
2017-03-21T02:12:27.893Z,36
2017-03-21T02:13:38.149Z,35.91
2017-03-21T02:14:48.096Z,35.71
2017-03-21T02:15:58.044Z,36
2017-03-21T02:17:08.009Z,35.81
2017-03-21T02:18:18.267Z,36.1
2017-03-21T02:19:27.950Z,35.81
2017-03-21T02:20:37.912Z,35.71
2017-03-21T02:21:47.851Z,35.71
2017-03-21T02:22:57.796Z,35.62
2017-03-21T02:24:07.787Z,35.71
2017-03-21T02:25:18.046Z,35.71
2017-03-21T02:26:28.308Z,35.71
2017-03-21T02:27:38.252Z,35.71
2017-03-21T02:28:48.510Z,36
2017-03-21T02:29:58.770Z,35.81
2017-03-21T02:31:09.032Z,35.81
2017-03-21T02:32:19.301Z,35.71
2017-03-21T02:33:29.241Z,35.71
2017-03-21T02:34:39.185Z,35.71
2017-03-21T02:35:49.147Z,35.52
2017-03-21T02:36:59.401Z,35.71
2017-03-21T02:38:09.346Z,35.71
2017-03-21T02:39:19.292Z,35.91
2017-03-21T02:40:29.238Z,35.91
2017-03-21T02:41:39.186Z,35.62
2017-03-21T02:42:49.134Z,35.71
2017-03-21T02:43:59.397Z,35.81
2017-03-21T02:45:09.353Z,35.62
2017-03-21T02:46:19.290Z,35.71
2017-03-21T02:47:28.921Z,35.62
2017-03-21T02:48:39.181Z,35.81
2017-03-21T02:49:49.443Z,35.81
2017-03-21T02:50:59.073Z,35.71
2017-03-21T02:52:09.023Z,35.71
2017-03-21T02:53:19.289Z,35.52
2017-03-21T02:54:28.928Z,35.52
2017-03-21T02:55:39.182Z,35.91
2017-03-21T02:56:49.470Z,35.91
2017-03-21T02:57:59.731Z,35.91
2017-03-21T02:59:09.998Z,35.52
2017-03-21T03:00:19.641Z,35.42
2017-03-21T03:01:29.896Z,35.52
2017-03-21T03:02:39.850Z,35.62
2017-03-21T03:03:49.797Z,35.62
2017-03-21T03:05:00.064Z,35.52
2017-03-21T03:06:10.004Z,35.71
2017-03-21T03:07:19.630Z,36
2017-03-21T03:08:29.892Z,35.81
2017-03-21T03:09:39.526Z,35.71
2017-03-21T03:10:49.470Z,35.91
2017-03-21T03:11:59.410Z,35.81
2017-03-21T03:13:09.678Z,35.71
2017-03-21T03:14:19.628Z,36
2017-03-21T03:15:29.572Z,35.33
2017-03-21T03:16:39.509Z,35.33
2017-03-21T03:17:49.768Z,35.71
2017-03-21T03:18:59.718Z,35.24
2017-03-21T03:20:09.671Z,35.14
2017-03-21T03:21:19.924Z,35.62
2017-03-21T03:22:29.864Z,35.71
2017-03-21T03:23:39.499Z,35.62
2017-03-21T03:24:49.448Z,35.42
2017-03-21T03:25:59.073Z,35.62
2017-03-21T03:27:08.707Z,36
2017-03-21T03:28:18.965Z,35.91
2017-03-21T03:29:28.920Z,35.91
2017-03-21T03:30:38.864Z,35.91
2017-03-21T03:31:49.117Z,35.24
2017-03-21T03:32:59.381Z,35.5
2017-03-21T03:34:09.328Z,35.62
2017-03-21T03:35:19.586Z,35.62
2017-03-21T03:36:29.842Z,35.71
2017-03-21T03:37:39.471Z,35.31
2017-03-21T03:38:49.137Z,35.42
2017-03-21T03:39:59.081Z,35.42
2017-03-21T03:41:09.021Z,35.52
2017-03-21T03:42:18.967Z,35.52
2017-03-21T03:43:28.912Z,35.42
2017-03-21T03:44:39.176Z,35.52
2017-03-21T03:45:49.426Z,35.12
2017-03-21T03:46:59.365Z,35.71
2017-03-21T03:48:09.623Z,35.52
2017-03-21T03:49:19.891Z,35.62
2017-03-21T03:50:30.152Z,35.62
2017-03-21T03:51:40.106Z,35.24
2017-03-21T03:52:50.079Z,35.12
2017-03-21T03:54:00.032Z,35.04
2017-03-21T03:55:10.289Z,35.12
2017-03-21T03:56:20.542Z,35.22
2017-03-21T03:57:30.799Z,35.41
2017-03-21T03:58:40.753Z,35.22
2017-03-21T03:59:51.017Z,35.33
2017-03-21T04:01:00.970Z,35.24
2017-03-21T04:02:11.260Z,35.31
2017-03-21T04:03:20.905Z,35.31
2017-03-21T04:04:31.167Z,35.31
2017-03-21T04:05:41.134Z,35.5
2017-03-21T04:06:51.072Z,35.42
2017-03-21T04:08:00.697Z,35.31
2017-03-21T04:09:10.653Z,35.31
2017-03-21T04:10:20.602Z,35.52
2017-03-21T04:11:30.538Z,35.52
2017-03-21T04:12:40.484Z,35.42
2017-03-21T04:13:50.744Z,35.42
2017-03-21T04:15:00.693Z,35.14
2017-03-21T04:16:10.320Z,35.12
2017-03-21T04:17:20.581Z,34.75
2017-03-21T04:18:30.528Z,35.12
2017-03-21T04:19:40.798Z,35.12
2017-03-21T04:20:51.058Z,35.12
2017-03-21T04:22:01.002Z,35.5
2017-03-21T04:23:10.942Z,35.31
2017-03-21T04:24:20.899Z,35.42
2017-03-21T04:25:31.168Z,35.42
2017-03-21T04:26:40.851Z,35.24
2017-03-21T04:27:50.799Z,34.92
2017-03-21T04:29:01.059Z,35.31
2017-03-21T04:30:11.324Z,34.92
2017-03-21T04:31:21.583Z,34.75
2017-03-21T04:32:31.524Z,34.66
2017-03-21T04:33:41.470Z,34.92
2017-03-21T04:34:51.739Z,35.22
2017-03-21T04:36:02.002Z,35.22
2017-03-21T04:37:11.938Z,35.52
2017-03-21T04:38:21.879Z,35.24
2017-03-21T04:39:32.141Z,35.22
2017-03-21T04:40:42.112Z,35.31
2017-03-21T04:41:52.366Z,35.41
2017-03-21T04:43:02.638Z,35.41
2017-03-21T04:44:12.586Z,35.52
2017-03-21T04:45:22.850Z,35.5
2017-03-21T04:46:32.488Z,34.75
2017-03-21T04:47:42.750Z,35.12
2017-03-21T04:48:53.056Z,34.83
2017-03-21T04:50:03.310Z,34.74
2017-03-21T04:51:13.252Z,34.64
2017-03-21T04:52:23.508Z,34.92
2017-03-21T04:53:33.453Z,34.74
2017-03-21T04:54:43.096Z,34.84
2017-03-21T04:55:53.039Z,34.94
2017-03-21T04:57:03.301Z,35.02
2017-03-21T04:58:13.255Z,34.84
2017-03-21T04:59:23.201Z,34.74
2017-03-21T05:00:33.153Z,34.64
2017-03-21T05:01:43.408Z,34.74
2017-03-21T05:02:53.664Z,34.92
2017-03-21T05:04:03.932Z,34.94
2017-03-21T05:05:14.199Z,35.12
2017-03-21T05:06:24.454Z,35.24
2017-03-21T05:07:34.711Z,35.12
2017-03-21T05:08:44.360Z,35.33
2017-03-21T05:09:54.627Z,35.31
2017-03-21T05:11:04.887Z,35.14
2017-03-21T05:12:15.141Z,35.12
2017-03-21T05:13:25.400Z,35.31
2017-03-21T05:14:35.362Z,35.33
2017-03-21T05:15:45.627Z,35.14
2017-03-21T05:16:55.574Z,35.33
2017-03-21T05:18:05.829Z,35.33
2017-03-21T05:19:15.783Z,35.33
2017-03-21T05:20:26.077Z,35.31
2017-03-21T05:21:36.021Z,35.22
2017-03-21T05:22:45.965Z,35.31
2017-03-21T05:23:56.225Z,35.33
2017-03-21T05:25:06.172Z,35.33
2017-03-21T05:26:16.433Z,35.42
2017-03-21T05:27:26.688Z,35.33
2017-03-21T05:28:36.643Z,35.14
2017-03-21T05:29:46.279Z,35.24
2017-03-21T05:30:56.535Z,34.84
2017-03-21T05:32:06.482Z,35.04
2017-03-21T05:33:16.428Z,35.24
2017-03-21T05:34:26.691Z,35.24
2017-03-21T05:35:36.953Z,35.14
2017-03-21T05:36:46.896Z,35.14
2017-03-21T05:37:56.845Z,35.12
2017-03-21T05:39:06.796Z,35.02
2017-03-21T05:40:16.420Z,35.22
2017-03-21T05:41:26.672Z,35.24
2017-03-21T05:42:36.614Z,35.02
2017-03-21T05:43:46.563Z,34.92
2017-03-21T05:44:56.198Z,34.74
2017-03-21T05:46:06.147Z,34.84
2017-03-21T05:47:16.418Z,34.92
2017-03-21T05:48:26.372Z,34.74
2017-03-21T05:49:36.319Z,34.66
2017-03-21T05:50:46.263Z,34.74
2017-03-21T05:51:56.520Z,34.74
2017-03-21T05:53:06.161Z,34.74
2017-03-21T05:54:16.431Z,34.74
2017-03-21T05:55:26.724Z,34.64
2017-03-21T05:56:36.981Z,34.66
2017-03-21T05:57:46.929Z,35.22
2017-03-21T05:58:57.191Z,35.14
2017-03-21T06:00:07.465Z,34.92
2017-03-21T06:01:17.719Z,34.84
2017-03-21T06:02:27.982Z,35.04
2017-03-21T06:03:38.235Z,34.84
2017-03-21T06:04:48.500Z,34.94
2017-03-21T06:05:58.752Z,35.14
2017-03-21T06:07:08.377Z,34.84
2017-03-21T06:08:18.324Z,35.14
2017-03-21T06:09:28.272Z,34.94
2017-03-21T06:10:38.209Z,34.84
2017-03-21T06:11:48.465Z,35.14
2017-03-21T06:12:58.429Z,35.24
2017-03-21T06:14:08.685Z,35.24
2017-03-21T06:15:18.629Z,35.14
2017-03-21T06:16:28.569Z,35.33
2017-03-21T06:17:38.199Z,35.14
2017-03-21T06:18:48.459Z,34.94
2017-03-21T06:19:58.721Z,34.84
2017-03-21T06:21:08.351Z,34.75
2017-03-21T06:22:18.300Z,34.66
2017-03-21T06:23:28.271Z,34.75
2017-03-21T06:24:38.221Z,34.94
2017-03-21T06:25:48.482Z,34.66
2017-03-21T06:26:58.734Z,34.75
2017-03-21T06:28:08.684Z,34.75
2017-03-21T06:29:18.947Z,34.74
2017-03-21T06:30:28.892Z,34.45
2017-03-21T06:31:38.830Z,34.64
2017-03-21T06:32:49.084Z,34.35
2017-03-21T06:33:59.037Z,34.83
2017-03-21T06:35:08.992Z,34.25
2017-03-21T06:36:18.632Z,34.54
2017-03-21T06:37:28.263Z,34.83
2017-03-21T06:38:38.214Z,34.83
2017-03-21T06:39:48.477Z,34.84
2017-03-21T06:40:58.733Z,34.74
2017-03-21T06:42:08.995Z,34.66
2017-03-21T06:43:19.255Z,34.94
2017-03-21T06:44:29.203Z,34.66
2017-03-21T06:45:39.458Z,34.74
2017-03-21T06:46:49.403Z,34.64
2017-03-21T06:47:59.339Z,34.64
2017-03-21T06:49:09.292Z,34.64
2017-03-21T06:50:19.552Z,34.66
2017-03-21T06:51:29.811Z,34.56
2017-03-21T06:52:40.065Z,34.64
2017-03-21T06:53:50.334Z,34.74
2017-03-21T06:55:00.276Z,34.35
2017-03-21T06:56:09.908Z,34.74
2017-03-21T06:57:19.540Z,34.54
2017-03-21T06:58:29.491Z,34.54
2017-03-21T06:59:39.757Z,34.56
2017-03-21T07:00:49.405Z,34.16
2017-03-21T07:01:59.662Z,34.37
2017-03-21T07:03:09.604Z,34.06
2017-03-21T07:04:19.555Z,34.46
2017-03-21T07:05:29.186Z,34.16
2017-03-21T07:06:39.126Z,34.17
2017-03-21T07:07:49.068Z,34.64
2017-03-21T07:08:59.336Z,34.45
2017-03-21T07:10:09.278Z,34.75
2017-03-21T07:11:19.216Z,34.54
2017-03-21T07:12:29.475Z,34.66
2017-03-21T07:13:39.423Z,34.75
2017-03-21T07:14:49.382Z,34.46
2017-03-21T07:15:59.630Z,34.27
2017-03-21T07:17:09.576Z,34.46
2017-03-21T07:18:19.830Z,34.66
2017-03-21T07:19:29.781Z,34.56
2017-03-21T07:20:39.412Z,34.56
2017-03-21T07:21:49.347Z,34.75
2017-03-21T07:22:59.608Z,34.27
2017-03-21T07:24:09.877Z,34.37
2017-03-21T07:25:19.825Z,34.66
2017-03-21T07:26:29.460Z,34.75
2017-03-21T07:27:39.719Z,34.75
2017-03-21T07:28:49.687Z,34.56
2017-03-21T07:29:59.320Z,34.66
2017-03-21T07:31:09.260Z,34.75
2017-03-21T07:32:19.195Z,34.75
2017-03-21T07:33:29.461Z,34.66
2017-03-21T07:34:39.405Z,34.56
2017-03-21T07:35:49.342Z,34.66
2017-03-21T07:36:59.287Z,34.66
2017-03-21T07:38:08.594Z,34.37
2017-03-21T07:39:18.862Z,34.66
2017-03-21T07:40:28.812Z,34.27
2017-03-21T07:41:38.751Z,35.04
2017-03-21T07:42:48.691Z,34.84
2017-03-21T07:43:58.641Z,34.84
2017-03-21T07:45:08.901Z,34.94
2017-03-21T07:46:19.160Z,34.37
2017-03-21T07:47:29.415Z,34.94
2017-03-21T07:48:39.057Z,34.66
2017-03-21T07:49:49.008Z,34.66
2017-03-21T07:50:59.266Z,34.75
2017-03-21T07:52:09.210Z,34.84
2017-03-21T07:53:18.837Z,34.66
2017-03-21T07:54:29.103Z,34.84
2017-03-21T07:55:39.364Z,34.56
2017-03-21T07:56:49.328Z,34.66
2017-03-21T07:57:58.329Z,34.66
2017-03-21T07:59:08.272Z,34.94
2017-03-21T08:00:18.221Z,34.75
2017-03-21T08:01:28.471Z,34.66
2017-03-21T08:02:38.414Z,34.75
2017-03-21T08:03:48.363Z,34.66
2017-03-21T08:04:58.621Z,34.75
2017-03-21T08:06:07.939Z,34.66
2017-03-21T08:07:18.205Z,34.66
2017-03-21T08:08:28.155Z,34.75
2017-03-21T08:09:38.417Z,34.75
2017-03-21T08:10:48.676Z,34.75
2017-03-21T08:11:58.306Z,34.66
2017-03-21T08:13:08.260Z,34.66
2017-03-21T08:14:18.203Z,34.75
2017-03-21T08:15:28.147Z,34.66
2017-03-21T08:16:38.410Z,34.75
2017-03-21T08:17:48.665Z,34.75
2017-03-21T08:18:58.935Z,34.67
2017-03-21T08:20:08.878Z,34.75
2017-03-21T08:21:19.138Z,34.84
2017-03-21T08:22:29.086Z,34.77
2017-03-21T08:23:39.355Z,34.66
2017-03-21T08:24:49.615Z,34.75
2017-03-21T08:25:59.885Z,34.66
2017-03-21T08:27:10.142Z,34.75
2017-03-21T08:28:20.406Z,34.84
2017-03-21T08:29:30.676Z,34.75
2017-03-21T08:30:40.939Z,34.66
2017-03-21T08:31:50.884Z,34.66
2017-03-21T08:33:01.168Z,34.67
2017-03-21T08:34:11.426Z,34.58
2017-03-21T08:35:21.677Z,34.66
2017-03-21T08:36:31.931Z,34.77
2017-03-21T08:37:42.183Z,34.84
2017-03-21T08:38:52.126Z,35.24
2017-03-21T08:40:02.390Z,35.24
2017-03-21T08:41:12.016Z,35.42
2017-03-21T08:42:22.270Z,35.62
2017-03-21T08:43:32.210Z,35.33
2017-03-21T08:44:42.153Z,35.62
2017-03-21T08:45:52.140Z,35.33
2017-03-21T08:47:01.774Z,35.62
2017-03-21T08:48:12.030Z,35.42
2017-03-21T08:49:22.288Z,35.24
2017-03-21T08:50:32.550Z,35.52
2017-03-21T08:51:42.809Z,34.94
2017-03-21T08:52:52.117Z,35.52
2017-03-21T08:54:02.384Z,35.33
2017-03-21T08:55:12.635Z,35.24
2017-03-21T08:56:22.569Z,35.71
2017-03-21T08:57:32.839Z,35.71
2017-03-21T08:58:42.781Z,35.42
2017-03-21T08:59:52.723Z,35.91
2017-03-21T09:01:02.981Z,35.62
2017-03-21T09:02:13.231Z,35.71
2017-03-21T09:03:23.170Z,35.91
2017-03-21T09:04:33.429Z,36
2017-03-21T09:05:43.369Z,36
2017-03-21T09:06:53.309Z,36.39
2017-03-21T09:08:03.251Z,36.39
2017-03-21T09:09:12.571Z,36.49
2017-03-21T09:10:22.840Z,36.49
2017-03-21T09:11:32.790Z,36.19
2017-03-21T09:12:42.726Z,36.68
2017-03-21T09:13:52.983Z,36.49
2017-03-21T09:15:03.242Z,36.49
2017-03-21T09:16:13.181Z,36.19
2017-03-21T09:17:23.117Z,36.29
2017-03-21T09:18:32.427Z,36.29
2017-03-21T09:19:42.367Z,36.49
2017-03-21T09:20:52.622Z,36.49
2017-03-21T09:22:02.559Z,36.29
2017-03-21T09:23:12.496Z,36.29
2017-03-21T09:24:22.450Z,36.19
2017-03-21T09:25:32.711Z,36.19
2017-03-21T09:26:42.963Z,36.58
2017-03-21T09:27:52.623Z,36.58
2017-03-21T09:29:02.558Z,36.49
2017-03-21T09:30:11.883Z,36.29
2017-03-21T09:31:21.828Z,36.58
2017-03-21T09:32:31.451Z,36.39
2017-03-21T09:33:41.705Z,36.1
2017-03-21T09:34:51.966Z,36.39
2017-03-21T09:36:02.219Z,36.39
2017-03-21T09:37:12.164Z,36.39
2017-03-21T09:38:22.421Z,36.19
2017-03-21T09:39:32.365Z,36.21
2017-03-21T09:40:42.316Z,36.39
2017-03-21T09:41:52.573Z,36.31
2017-03-21T09:43:02.517Z,36.29
2017-03-21T09:44:12.155Z,36.39
2017-03-21T09:45:21.788Z,36.41
2017-03-21T09:46:31.726Z,36.58
2017-03-21T09:47:41.981Z,36.39
2017-03-21T09:48:52.240Z,36.29
2017-03-21T09:50:01.865Z,36.49
2017-03-21T09:51:12.124Z,36.39
2017-03-21T09:52:22.063Z,36.29
2017-03-21T09:53:32.327Z,36.19
2017-03-21T09:54:41.640Z,36.29
2017-03-21T09:55:51.894Z,36.11
2017-03-21T09:57:01.865Z,36.29
2017-03-21T09:58:12.123Z,36.19
2017-03-21T09:59:22.376Z,36.1
2017-03-21T10:00:32.627Z,36.1
2017-03-21T10:01:42.566Z,36.29
2017-03-21T10:02:51.877Z,36.1
2017-03-21T10:04:01.509Z,36.19
2017-03-21T10:05:11.144Z,36.39
2017-03-21T10:06:21.084Z,36.29
2017-03-21T10:07:31.021Z,36.49
2017-03-21T10:08:41.289Z,36.58
2017-03-21T10:09:51.546Z,36.19
2017-03-21T10:11:01.487Z,36.49
2017-03-21T10:12:11.746Z,36.39
2017-03-21T10:13:21.683Z,36.49
2017-03-21T10:14:32.236Z,36.49
2017-03-21T10:15:42.174Z,36.6
2017-03-21T10:16:52.111Z,36.39
2017-03-21T10:18:02.362Z,36.1
2017-03-21T10:19:12.333Z,36.68
2017-03-21T10:20:22.589Z,36.49
2017-03-21T10:21:32.217Z,36.87
2017-03-21T10:22:42.157Z,36.49
2017-03-21T10:23:52.411Z,36.49
2017-03-21T10:25:02.659Z,36.51
2017-03-21T10:26:12.287Z,36.51
2017-03-21T10:27:22.543Z,36.21
2017-03-21T10:28:32.796Z,36.49
2017-03-21T10:29:43.045Z,36.41
2017-03-21T10:30:52.671Z,36.29
2017-03-21T10:32:02.930Z,36.51
2017-03-21T10:33:12.237Z,36.39
2017-03-21T10:34:22.496Z,36.6
2017-03-21T10:35:32.434Z,36.31
2017-03-21T10:36:42.374Z,36.31
2017-03-21T10:37:52.316Z,36.02
2017-03-21T10:39:02.253Z,36.19
2017-03-21T10:40:12.192Z,36.51
2017-03-21T10:41:22.449Z,36.51
2017-03-21T10:42:32.393Z,36.51
2017-03-21T10:43:42.333Z,36.49
2017-03-21T10:44:52.274Z,36.39
2017-03-21T10:46:01.587Z,36.39
2017-03-21T10:47:11.850Z,36.29
2017-03-21T10:48:21.786Z,36.49
2017-03-21T10:49:32.040Z,36.39
2017-03-21T10:50:42.298Z,36.41
2017-03-21T10:51:52.248Z,36.51
2017-03-21T10:53:02.195Z,36.49
2017-03-21T10:54:11.821Z,36.49
2017-03-21T10:55:21.449Z,36.51
2017-03-21T10:56:31.705Z,36.39
2017-03-21T10:57:41.329Z,36.49
2017-03-21T10:58:51.583Z,36.1
2017-03-21T11:00:01.523Z,36.1
2017-03-21T11:01:11.777Z,36.51
2017-03-21T11:02:22.028Z,36.39
2017-03-21T11:03:31.979Z,36.31
2017-03-21T11:04:42.233Z,36.19
2017-03-21T11:05:52.487Z,36.39
2017-03-21T11:07:02.427Z,36.39
2017-03-21T11:08:12.377Z,36.21
2017-03-21T11:09:22.323Z,36.51
2017-03-21T11:10:32.580Z,36.49
2017-03-21T11:11:41.896Z,36.31
2017-03-21T11:12:51.841Z,36.39
2017-03-21T11:14:01.783Z,36.21
2017-03-21T11:15:11.415Z,36.41
2017-03-21T11:16:21.675Z,36.31
2017-03-21T11:17:31.628Z,36.39
2017-03-21T11:18:41.885Z,36.39
2017-03-21T11:19:51.834Z,36.19
2017-03-21T11:21:01.466Z,36.19
2017-03-21T11:22:11.099Z,36.19
2017-03-21T11:23:21.375Z,36.39
2017-03-21T11:24:31.310Z,36.1
2017-03-21T11:25:41.563Z,36.19
2017-03-21T11:26:51.509Z,36.19
2017-03-21T11:28:01.454Z,36.29
2017-03-21T11:29:11.392Z,36.19
2017-03-21T11:30:21.346Z,36.19
2017-03-21T11:31:31.295Z,36.1
2017-03-21T11:32:41.237Z,36.39
2017-03-21T11:33:50.546Z,36.19
2017-03-21T11:35:00.800Z,36.19
2017-03-21T11:36:10.748Z,36.19
2017-03-21T11:37:20.686Z,36.1
2017-03-21T11:38:30.311Z,36.1
2017-03-21T11:39:39.938Z,36.1
2017-03-21T11:40:49.881Z,36.19
2017-03-21T11:41:59.508Z,36.39
2017-03-21T11:43:09.452Z,36.29
2017-03-21T11:44:19.388Z,36.39
2017-03-21T11:45:28.701Z,36.1
2017-03-21T11:46:38.014Z,36.11
2017-03-21T11:47:48.267Z,36.21
2017-03-21T11:48:57.900Z,36.1
2017-03-21T11:50:07.529Z,36.1
2017-03-21T11:51:16.850Z,36.21
2017-03-21T11:52:26.788Z,36.19
2017-03-21T11:53:36.101Z,36.19
2017-03-21T11:54:46.038Z,36.1
2017-03-21T11:55:55.976Z,36.29
2017-03-21T11:57:05.925Z,36.11
2017-03-21T11:58:15.867Z,36.21
2017-03-21T11:59:25.815Z,36.31
2017-03-21T12:00:35.750Z,36.41
2017-03-21T12:01:45.997Z,36.29
2017-03-21T12:02:55.936Z,36.21
2017-03-21T12:04:06.189Z,36.1
2017-03-21T12:05:16.132Z,36.19
2017-03-21T12:06:26.072Z,36.39
2017-03-21T12:07:36.017Z,36.21
2017-03-21T12:08:45.965Z,36.21
2017-03-21T12:09:55.905Z,36.19
2017-03-21T12:11:05.852Z,36.21
2017-03-21T12:12:15.796Z,36.1
2017-03-21T12:13:26.051Z,36.19
2017-03-21T12:14:36.006Z,36.41
2017-03-21T12:15:46.108Z,36.21
2017-03-21T12:16:56.382Z,36.19
2017-03-21T12:18:06.650Z,36.11
2017-03-21T12:19:16.590Z,36.1
2017-03-21T12:20:26.843Z,36.1
2017-03-21T12:21:36.782Z,36.29
2017-03-21T12:22:46.409Z,36.21
2017-03-21T12:23:55.104Z,36.31
2017-03-21T12:25:05.374Z,36.29
2017-03-21T12:26:15.316Z,36.29
2017-03-21T12:27:24.939Z,36.19
2017-03-21T12:28:34.882Z,36
2017-03-21T12:29:44.515Z,36.11
2017-03-21T12:30:54.772Z,36.21
2017-03-21T12:32:04.402Z,36.19
2017-03-21T12:33:14.028Z,36.19
2017-03-21T12:34:23.663Z,36.21
2017-03-21T12:35:33.607Z,36.11
2017-03-21T12:36:43.548Z,36.29
2017-03-21T12:37:53.488Z,36.19
2017-03-21T12:39:03.748Z,36.19
2017-03-21T12:40:13.691Z,36.19
2017-03-21T12:41:23.658Z,36.19
2017-03-21T12:42:33.281Z,36.39
2017-03-21T12:43:43.228Z,36.19
2017-03-21T12:44:53.171Z,36.39
2017-03-21T12:46:03.110Z,36.29
2017-03-21T12:47:13.047Z,36.31
2017-03-21T12:48:22.985Z,36.19
2017-03-21T12:49:32.931Z,36.19
2017-03-21T12:50:42.880Z,36.29
2017-03-21T12:51:52.815Z,36.1
2017-03-21T12:53:02.758Z,36.39
2017-03-21T12:54:13.012Z,36.21
2017-03-21T12:55:23.265Z,36.39
2017-03-21T12:56:32.892Z,36.31
2017-03-21T12:57:43.146Z,36.19
2017-03-21T12:58:53.406Z,36
2017-03-21T13:00:03.663Z,36.21
2017-03-21T13:01:12.975Z,36.31
2017-03-21T13:02:22.912Z,36.29
2017-03-21T13:03:32.544Z,36.29
2017-03-21T13:04:42.487Z,36.29
2017-03-21T13:05:52.750Z,36.31
2017-03-21T13:07:02.058Z,36.29
2017-03-21T13:08:11.996Z,36.29
2017-03-21T13:09:21.992Z,36.29
2017-03-21T13:10:31.662Z,36.29
2017-03-21T13:11:41.304Z,36.39
2017-03-21T13:12:51.553Z,36.19
2017-03-21T13:14:00.874Z,36.21
2017-03-21T13:15:10.508Z,36.29
2017-03-21T13:16:20.446Z,36.31
2017-03-21T13:17:30.704Z,36.39
2017-03-21T13:18:40.958Z,36.39
2017-03-21T13:19:51.211Z,36.29
2017-03-21T13:21:01.155Z,36.31
2017-03-21T13:22:11.097Z,36.19
2017-03-21T13:23:21.393Z,36.41
2017-03-21T13:24:31.652Z,36.31
2017-03-21T13:25:41.908Z,36.21
2017-03-21T13:26:51.530Z,36.21
2017-03-21T13:28:01.784Z,36.29
2017-03-21T13:29:12.034Z,36.1
2017-03-21T13:30:21.978Z,36.19
2017-03-21T13:31:32.228Z,36.29
2017-03-21T13:32:42.173Z,36.21
2017-03-21T13:33:52.118Z,36.31
2017-03-21T13:35:02.367Z,36.29
2017-03-21T13:36:12.622Z,36.19
2017-03-21T13:37:22.573Z,36.19
2017-03-21T13:38:32.838Z,36.21
2017-03-21T13:39:42.519Z,36.1
2017-03-21T13:40:52.472Z,36.29
2017-03-21T13:42:02.744Z,36.41
2017-03-21T13:43:12.685Z,36.21
2017-03-21T13:44:22.943Z,36.19
2017-03-21T13:45:32.579Z,36.21
2017-03-21T13:46:42.841Z,36.29
2017-03-21T13:47:52.469Z,36.39
2017-03-21T13:49:02.424Z,36.31
2017-03-21T13:50:12.367Z,36.21
2017-03-21T13:51:22.308Z,36.31
2017-03-21T13:52:32.263Z,36.29
2017-03-21T13:53:42.527Z,36.19
2017-03-21T13:54:52.151Z,36.41
2017-03-21T13:56:02.088Z,36.1
2017-03-21T13:57:12.032Z,36.31
2017-03-21T13:58:21.662Z,36.29
2017-03-21T13:59:31.599Z,36.29
2017-03-21T14:00:41.853Z,36.29
2017-03-21T14:01:51.791Z,36.29
2017-03-21T14:03:01.734Z,36.29
2017-03-21T14:04:11.993Z,36.41
2017-03-21T14:05:22.247Z,36.39
2017-03-21T14:06:32.189Z,36
2017-03-21T14:07:42.133Z,36.39
2017-03-21T14:08:52.077Z,36.21
2017-03-21T14:10:02.334Z,36.49
2017-03-21T14:11:11.328Z,36.49
2017-03-21T14:12:21.608Z,36.29
2017-03-21T14:13:31.244Z,36.51
2017-03-21T14:14:40.871Z,36.1
2017-03-21T14:15:50.499Z,36.39
2017-03-21T14:17:00.477Z,36.58
2017-03-21T14:18:10.422Z,36.1
2017-03-21T14:19:20.675Z,36.49
2017-03-21T14:20:30.299Z,36.49
2017-03-21T14:21:39.927Z,36.39
2017-03-21T14:22:50.189Z,36.39
2017-03-21T14:24:00.136Z,36.29
2017-03-21T14:25:09.452Z,36.29
2017-03-21T14:26:19.701Z,36.68
2017-03-21T14:27:29.329Z,36.29
2017-03-21T14:28:39.280Z,36.19
2017-03-21T14:29:48.910Z,36.39
2017-03-21T14:30:58.855Z,36.39
2017-03-21T14:32:08.484Z,36.39
2017-03-21T14:33:18.119Z,36.39
2017-03-21T14:34:28.060Z,36.29
2017-03-21T14:35:38.309Z,36.29
2017-03-21T14:36:47.936Z,36.29
2017-03-21T14:37:58.191Z,36.39
2017-03-21T14:39:08.449Z,36.39
2017-03-21T14:40:18.398Z,36.41
2017-03-21T14:41:28.333Z,36.49
2017-03-21T14:42:38.596Z,36.21
2017-03-21T14:43:48.545Z,36.29
2017-03-21T14:44:58.484Z,36.41
2017-03-21T14:46:08.438Z,36.31
2017-03-21T14:47:18.691Z,36.29
2017-03-21T14:48:28.632Z,36.11
2017-03-21T14:49:38.573Z,36.31
2017-03-21T14:50:48.512Z,36.39
2017-03-21T14:51:58.775Z,36.31
2017-03-21T14:53:08.713Z,36.51
2017-03-21T14:54:18.967Z,36.39
2017-03-21T14:55:28.905Z,36.29
2017-03-21T14:56:38.845Z,36.29
2017-03-21T14:57:48.158Z,36.29
2017-03-21T14:58:58.107Z,36.29
2017-03-21T15:00:08.357Z,36.39
2017-03-21T15:01:18.296Z,36.29
2017-03-21T15:02:27.617Z,36.29
2017-03-21T15:03:37.877Z,36.19
2017-03-21T15:04:48.137Z,36.29